Time;durP1;ratioP1;P1;durP2;ratioP2;P2;SDS_P1;SDS_P2;PMS_P1;PMS_P2;Temp;Humidity;BMP_temperature;BMP_pressure;BME280_temperature;BME280_humidity;BME280_pressure;Samples;Min_cycle;Max_cycle;Signal;HPM_P1;HPM_P2
2022/10/02 00:01:50;;;;;;;;;;;12.90;76.50;;;;;;5055767;28;19920;-79
2022/10/02 00:04:18;;;;;;;;;;;12.90;76.50;;;;;;5071591;28;19912;-77
2022/10/02 00:06:46;;;;;;;;;;;12.90;76.50;;;;;;5069401;28;19912;-78
2022/10/02 00:09:18;;;;;;;;;;;12.90;76.50;;;;;;5061607;28;19920;-78
2022/10/02 00:11:44;;;;;;;;;;;12.90;76.50;;;;;;5069550;28;20583;-77
2022/10/02 00:14:14;;;;;;;;;;;12.90;76.60;;;;;;5065095;28;19919;-77
2022/10/02 00:16:40;;;;;;;;;;;12.90;76.60;;;;;;5056189;28;19922;-77
2022/10/02 00:19:08;;;;;;;;;;;12.90;76.60;;;;;;5054190;28;19913;-77
2022/10/02 00:21:33;;;;;;;;;;;12.80;76.60;;;;;;5070013;28;20258;-78
2022/10/02 00:23:59;;;;;;;;;;;12.80;76.60;;;;;;5076525;28;19916;-77
2022/10/02 00:26:34;;;;;;;;;;;12.80;77.40;;;;;;5066464;28;19919;-78
2022/10/02 00:29:15;;;;;;;;;;;12.80;76.60;;;;;;5069577;28;19922;-78
2022/10/02 00:31:52;;;;;;;;;;;12.80;76.70;;;;;;5059770;28;19919;-76
2022/10/02 00:34:37;;;;;;;;;;;12.80;76.80;;;;;;5087009;28;20287;-78
2022/10/02 00:37:06;;;;;;;;;;;12.80;76.80;;;;;;5085637;28;19917;-77
2022/10/02 00:39:37;;;;;;;;;;;12.70;76.70;;;;;;5060729;28;19916;-77
2022/10/02 00:42:12;;;;;;;;;;;12.70;76.70;;;;;;5087875;28;19913;-77
2022/10/02 00:44:40;;;;;;;;;;;12.70;76.60;;;;;;5059299;28;19927;-78
2022/10/02 00:47:26;;;;;;;;;;;12.70;76.70;;;;;;5075277;28;19914;-77
2022/10/02 00:50:01;;;;;;;;;;;12.70;76.70;;;;;;5072461;28;19926;-78
2022/10/02 00:52:40;;;;;;;;;;;12.60;76.70;;;;;;5076868;28;19912;-77
2022/10/02 00:55:14;;;;;;;;;;;12.60;76.70;;;;;;5073021;28;19916;-77
2022/10/02 00:57:58;;;;;;;;;;;12.50;76.70;;;;;;5056143;28;19912;-78
2022/10/02 01:00:24;;;;;;;;;;;12.50;76.80;;;;;;5092835;28;20006;-78
2022/10/02 01:02:49;;;;;;;;;;;12.50;76.90;;;;;;5058179;28;20355;-78
2022/10/02 01:05:15;;;;;;;;;;;12.50;76.80;;;;;;5090891;28;19918;-77
2022/10/02 01:07:41;;;;;;;;;;;12.40;76.90;;;;;;5076436;28;19962;-76
2022/10/02 01:10:07;;;;;;;;;;;12.40;76.90;;;;;;5082780;28;19919;-77
2022/10/02 01:12:32;;;;;;;;;;;12.30;76.90;;;;;;5081754;28;19919;-78
2022/10/02 01:14:58;;;;;;;;;;;12.30;76.90;;;;;;5079322;28;20003;-77
2022/10/02 01:17:24;;;;;;;;;;;12.30;77.00;;;;;;5065828;28;19923;-78
2022/10/02 01:19:50;;;;;;;;;;;12.30;77.10;;;;;;5091849;28;19941;-78
2022/10/02 01:22:15;;;;;;;;;;;12.30;77.00;;;;;;5062738;28;19931;-77
2022/10/02 01:24:47;;;;;;;;;;;12.20;77.00;;;;;;5094075;28;19912;-79
2022/10/02 01:27:12;;;;;;;;;;;12.20;77.00;;;;;;5092524;28;19916;-78
2022/10/02 01:29:37;;;;;;;;;;;12.20;77.10;;;;;;5076171;28;19922;-78
2022/10/02 01:32:03;;;;;;;;;;;12.20;77.10;;;;;;5078634;28;19916;-76
2022/10/02 01:34:28;;;;;;;;;;;12.20;77.10;;;;;;5077013;28;19924;-77
2022/10/02 01:36:54;;;;;;;;;;;12.20;77.10;;;;;;5071233;28;19987;-78
2022/10/02 01:39:20;;;;;;;;;;;12.10;77.10;;;;;;5083310;28;20504;-77
2022/10/02 01:41:46;;;;;;;;;;;12.10;77.10;;;;;;5075798;28;20127;-78
2022/10/02 01:44:11;;;;;;;;;;;12.10;77.10;;;;;;5075374;28;19920;-77
2022/10/02 01:46:50;;;;;;;;;;;12.10;77.10;;;;;;5078572;28;19972;-78
2022/10/02 01:49:18;;;;;;;;;;;12.10;77.20;;;;;;5075165;28;19913;-78
2022/10/02 01:52:02;;;;;;;;;;;12.10;77.20;;;;;;5058856;28;19916;-78
2022/10/02 01:54:34;;;;;;;;;;;12.00;77.20;;;;;;5092802;28;20352;-78
2022/10/02 01:57:14;;;;;;;;;;;12.00;77.20;;;;;;5079143;28;20011;-77
2022/10/02 01:59:48;;;;;;;;;;;12.00;77.20;;;;;;5070118;28;19915;-77
2022/10/02 02:02:25;;;;;;;;;;;12.00;77.30;;;;;;5060037;28;19913;-78
2022/10/02 02:04:54;;;;;;;;;;;12.00;77.40;;;;;;5046445;28;19947;-77
2022/10/02 02:07:40;;;;;;;;;;;12.10;77.40;;;;;;5074182;28;19953;-76
2022/10/02 02:10:18;;;;;;;;;;;12.10;77.40;;;;;;5042209;28;19912;-78
2022/10/02 02:12:48;;;;;;;;;;;12.10;77.40;;;;;;5072835;28;19959;-77
2022/10/02 02:15:22;;;;;;;;;;;12.10;77.40;;;;;;5074466;28;19927;-77
2022/10/02 02:17:57;;;;;;;;;;;12.20;77.50;;;;;;5080466;28;19943;-77
2022/10/02 02:20:27;;;;;;;;;;;12.20;77.40;;;;;;5072221;28;20060;-77
2022/10/02 02:22:53;;;;;;;;;;;12.30;77.40;;;;;;5058783;28;20011;-77
2022/10/02 02:25:19;;;;;;;;;;;12.30;77.40;;;;;;5073078;28;19939;-77
2022/10/02 02:27:49;;;;;;;;;;;12.40;77.30;;;;;;5071871;28;20003;-77
2022/10/02 02:30:14;;;;;;;;;;;12.40;77.30;;;;;;5090782;28;19912;-77
2022/10/02 02:32:42;;;;;;;;;;;12.40;77.20;;;;;;5073700;28;19924;-77
2022/10/02 02:35:14;;;;;;;;;;;12.50;77.20;;;;;;5070055;28;19912;-77
2022/10/02 02:37:39;;;;;;;;;;;12.50;77.20;;;;;;5053615;28;19995;-77
2022/10/02 02:40:06;;;;;;;;;;;12.60;77.20;;;;;;5065929;28;20762;-76
2022/10/02 02:42:32;;;;;;;;;;;12.60;77.20;;;;;;5054029;28;20019;-77
2022/10/02 02:45:16;;;;;;;;;;;12.70;77.20;;;;;;5061678;28;19962;-77
2022/10/02 02:47:42;;;;;;;;;;;12.70;77.20;;;;;;5080632;28;19940;-78
2022/10/02 02:50:07;;;;;;;;;;;12.70;77.20;;;;;;5071471;28;20372;-76
2022/10/02 02:52:53;;;;;;;;;;;12.70;77.10;;;;;;5069872;28;19926;-76
2022/10/02 02:55:21;;;;;;;;;;;12.70;77.10;;;;;;5067872;28;19912;-76
2022/10/02 02:57:57;;;;;;;;;;;12.80;77.10;;;;;;5071245;28;19981;-77
2022/10/02 03:00:23;;;;;;;;;;;12.80;77.10;;;;;;5066183;28;19926;-77
2022/10/02 03:02:49;;;;;;;;;;;12.80;77.10;;;;;;5053681;28;20003;-77
2022/10/02 03:05:15;;;;;;;;;;;12.80;77.10;;;;;;5066837;28;19951;-77
2022/10/02 03:07:49;;;;;;;;;;;12.90;77.10;;;;;;5053546;28;19923;-77
2022/10/02 03:10:15;;;;;;;;;;;12.90;77.20;;;;;;5068478;28;19917;-77
2022/10/02 03:12:41;;;;;;;;;;;12.90;77.10;;;;;;5068344;28;19919;-77
2022/10/02 03:15:42;;;;;;;;;;;12.90;77.00;;;;;;5084461;28;20007;-77
2022/10/02 03:18:07;;;;;;;;;;;12.90;77.00;;;;;;5009434;28;19973;-77
2022/10/02 03:20:35;;;;;;;;;;;12.90;77.10;;;;;;5071411;28;20319;-77
2022/10/02 03:23:07;;;;;;;;;;;13.00;77.10;;;;;;5069205;28;19912;-77
2022/10/02 03:25:40;;;;;;;;;;;13.00;77.10;;;;;;5093332;27;19920;-77
2022/10/02 03:28:16;;;;;;;;;;;13.00;77.10;;;;;;5099262;27;19912;-76
2022/10/02 03:30:41;;;;;;;;;;;13.00;77.00;;;;;;5067279;28;19974;-77
2022/10/02 03:33:07;;;;;;;;;;;13.10;77.10;;;;;;5066999;28;19919;-77
2022/10/02 03:35:32;;;;;;;;;;;13.10;77.10;;;;;;5100583;27;20053;-77
2022/10/02 03:37:59;;;;;;;;;;;13.10;77.10;;;;;;5067024;28;19923;-75
2022/10/02 03:40:25;;;;;;;;;;;13.10;77.10;;;;;;5060255;28;19916;-76
2022/10/02 03:42:51;;;;;;;;;;;13.10;77.00;;;;;;5080666;28;19944;-77
2022/10/02 03:45:17;;;;;;;;;;;13.10;77.00;;;;;;5065284;28;19920;-76
2022/10/02 03:47:42;;;;;;;;;;;13.10;77.00;;;;;;5052451;28;19916;-77
2022/10/02 03:50:08;;;;;;;;;;;13.10;77.00;;;;;;5082134;28;19931;-76
2022/10/02 03:52:33;;;;;;;;;;;13.10;77.00;;;;;;5053513;28;20035;-76
2022/10/02 03:55:03;;;;;;;;;;;13.10;77.80;;;;;;5069220;28;20543;-76
2022/10/02 03:57:29;;;;;;;;;;;13.10;77.10;;;;;;5055525;28;19939;-76
2022/10/02 04:00:00;;;;;;;;;;;13.10;77.10;;;;;;5083205;28;20435;-75
2022/10/02 04:02:26;;;;;;;;;;;13.10;77.10;;;;;;5082886;28;19911;-74
2022/10/02 04:04:58;;;;;;;;;;;13.20;77.10;;;;;;5087748;28;19935;-75
2022/10/02 04:07:25;;;;;;;;;;;13.10;77.00;;;;;;5060658;28;19923;-76
2022/10/02 04:10:29;;;;;;;;;;;13.20;77.10;;;;;;5072954;28;19920;-75
2022/10/02 04:12:56;;;;;;;;;;;13.20;77.10;;;;;;5031595;28;20618;-76
2022/10/02 04:15:27;;;;;;;;;;;13.20;77.10;;;;;;5019745;28;20022;-75
2022/10/02 04:18:13;;;;;;;;;;;13.20;77.10;;;;;;5078522;27;19922;-76
2022/10/02 04:20:42;;;;;;;;;;;13.20;77.10;;;;;;5077551;28;19938;-76
2022/10/02 04:23:27;;;;;;;;;;;13.20;77.10;;;;;;5105985;27;19944;-75
2022/10/02 04:26:00;;;;;;;;;;;13.20;77.10;;;;;;5076134;28;20005;-76
2022/10/02 04:28:27;;;;;;;;;;;13.20;77.10;;;;;;5059364;28;20304;-76
2022/10/02 04:30:52;;;;;;;;;;;13.20;77.10;;;;;;5073687;28;22085;-77
2022/10/02 04:33:18;;;;;;;;;;;13.20;77.10;;;;;;5073848;28;19916;-76
2022/10/02 04:35:59;;;;;;;;;;;13.30;77.20;;;;;;5089743;28;19916;-76
2022/10/02 04:38:33;;;;;;;;;;;13.30;77.20;;;;;;5092375;28;19934;-76
2022/10/02 04:41:01;;;;;;;;;;;13.30;77.20;;;;;;5059622;28;19915;-76
2022/10/02 04:43:30;;;;;;;;;;;13.30;77.20;;;;;;5091051;28;19934;-75
2022/10/02 04:45:55;;;;;;;;;;;13.30;77.20;;;;;;5091927;28;20353;-75
2022/10/02 04:48:26;;;;;;;;;;;13.30;77.20;;;;;;5090650;28;19936;-76
2022/10/02 04:50:52;;;;;;;;;;;13.30;77.20;;;;;;5091814;28;19923;-76
2022/10/02 04:53:36;;;;;;;;;;;13.30;77.90;;;;;;5094587;28;19915;-76
2022/10/02 04:56:07;;;;;;;;;;;13.30;77.10;;;;;;5089932;28;20065;-76
2022/10/02 04:58:39;;;;;;;;;;;13.30;77.90;;;;;;5067615;28;19919;-76
2022/10/02 05:01:20;;;;;;;;;;;13.30;77.10;;;;;;5074861;28;19960;-76
2022/10/02 05:04:04;;;;;;;;;;;13.30;77.10;;;;;;5087142;28;21052;-77
2022/10/02 05:06:29;;;;;;;;;;;13.30;77.10;;;;;;5079301;28;19969;-76
2022/10/02 05:08:58;;;;;;;;;;;13.30;77.10;;;;;;5091243;28;19916;-77
2022/10/02 05:11:29;;;;;;;;;;;13.30;77.10;;;;;;5100887;27;19920;-76
2022/10/02 05:14:08;;;;;;;;;;;13.30;77.10;;;;;;5089248;28;19931;-77
2022/10/02 05:16:52;;;;;;;;;;;13.40;77.20;;;;;;5066887;28;19924;-76
2022/10/02 05:19:23;;;;;;;;;;;13.30;77.10;;;;;;5089137;28;19934;-76
2022/10/02 05:21:56;;;;;;;;;;;13.30;77.10;;;;;;5070656;28;19920;-75
2022/10/02 05:24:33;;;;;;;;;;;13.40;77.20;;;;;;5065166;28;19912;-77
2022/10/02 05:27:08;;;;;;;;;;;13.40;77.20;;;;;;5088057;28;19912;-76
2022/10/02 05:29:34;;;;;;;;;;;13.40;77.20;;;;;;5091126;28;19920;-76
2022/10/02 05:32:18;;;;;;;;;;;13.40;77.20;;;;;;5088327;28;20240;-77
2022/10/02 05:34:46;;;;;;;;;;;13.40;77.20;;;;;;5072083;28;19919;-76
2022/10/02 05:37:30;;;;;;;;;;;13.40;77.20;;;;;;5084887;28;19919;-76
2022/10/02 05:39:59;;;;;;;;;;;13.40;78.00;;;;;;5072257;28;19952;-78
2022/10/02 05:42:24;;;;;;;;;;;13.40;77.20;;;;;;5066697;28;19920;-78
2022/10/02 05:44:51;;;;;;;;;;;13.40;77.20;;;;;;5069086;28;19935;-77
2022/10/02 05:47:18;;;;;;;;;;;13.40;77.20;;;;;;5085266;28;20170;-78
2022/10/02 05:49:46;;;;;;;;;;;13.40;77.20;;;;;;5070847;28;19912;-77
2022/10/02 05:52:15;;;;;;;;;;;13.40;77.20;;;;;;5069439;28;19927;-77
2022/10/02 05:54:41;;;;;;;;;;;13.40;77.20;;;;;;5056927;28;19922;-78
2022/10/02 05:57:12;;;;;;;;;;;13.40;77.20;;;;;;5087403;28;19955;-77
2022/10/02 05:59:42;;;;;;;;;;;13.40;77.20;;;;;;5071502;28;19928;-76
2022/10/02 06:02:12;;;;;;;;;;;13.40;77.20;;;;;;5083668;28;19916;-76
2022/10/02 06:04:38;;;;;;;;;;;13.40;77.20;;;;;;5088285;28;20003;-76
2022/10/02 06:07:06;;;;;;;;;;;13.40;77.20;;;;;;5069491;28;19912;-77
2022/10/02 06:09:45;;;;;;;;;;;13.40;77.20;;;;;;5056629;28;20003;-77
2022/10/02 06:12:25;;;;;;;;;;;13.40;77.30;;;;;;5066709;28;19924;-75
2022/10/02 06:15:07;;;;;;;;;;;13.40;77.30;;;;;;5068455;28;20385;-76
2022/10/02 06:17:36;;;;;;;;;;;13.40;77.30;;;;;;5071307;28;19999;-76
2022/10/02 06:20:09;;;;;;;;;;;13.40;77.30;;;;;;5069202;28;19917;-76
2022/10/02 06:22:38;;;;;;;;;;;13.40;77.30;;;;;;5080452;28;19928;-76
2022/10/02 06:25:07;;;;;;;;;;;13.40;77.30;;;;;;5083370;28;19955;-77
2022/10/02 06:27:38;;;;;;;;;;;13.40;77.30;;;;;;5088681;28;20000;-76
2022/10/02 06:30:04;;;;;;;;;;;13.40;77.30;;;;;;5064963;28;19926;-75
2022/10/02 06:32:42;;;;;;;;;;;13.50;77.40;;;;;;5054819;28;19916;-77
2022/10/02 06:35:14;;;;;;;;;;;13.50;77.30;;;;;;5078526;28;19975;-78
2022/10/02 06:37:55;;;;;;;;;;;13.50;77.40;;;;;;5075671;27;20382;-77
2022/10/02 06:40:24;;;;;;;;;;;13.50;77.40;;;;;;5101290;27;19912;-76
2022/10/02 06:42:51;;;;;;;;;;;13.50;77.30;;;;;;5079899;28;19970;-78
2022/10/02 06:45:17;;;;;;;;;;;13.50;77.40;;;;;;5074390;28;19924;-78
2022/10/02 06:47:58;;;;;;;;;;;13.50;77.40;;;;;;5080305;28;19977;-77
2022/10/02 06:50:30;;;;;;;;;;;13.50;77.30;;;;;;5062268;28;19919;-79
2022/10/02 06:53:04;;;;;;;;;;;13.60;77.30;;;;;;5079681;28;19981;-77
2022/10/02 06:55:48;;;;;;;;;;;13.60;77.40;;;;;;5067763;28;20024;-77
2022/10/02 06:58:24;;;;;;;;;;;13.60;77.30;;;;;;5082527;28;20116;-78
2022/10/02 07:00:55;;;;;;;;;;;13.60;77.30;;;;;;5082056;28;19923;-78
2022/10/02 07:03:49;;;;;;;;;;;13.60;77.30;;;;;;5062888;28;19912;-78
2022/10/02 07:06:33;;;;;;;;;;;13.60;77.30;;;;;;5050386;28;19915;-78
2022/10/02 07:09:22;;;;;;;;;;;13.70;77.30;;;;;;5079992;28;19912;-80
2022/10/02 07:11:52;;;;;;;;;;;13.70;77.30;;;;;;5080550;28;19926;-78
2022/10/02 07:14:27;;;;;;;;;;;13.70;77.30;;;;;;5051821;28;20403;-78
2022/10/02 07:17:11;;;;;;;;;;;13.70;78.00;;;;;;5079486;28;19973;-77
2022/10/02 07:19:55;;;;;;;;;;;13.70;78.10;;;;;;5076065;28;19912;-78
2022/10/02 07:22:25;;;;;;;;;;;13.70;77.30;;;;;;5082008;28;20560;-79
2022/10/02 07:25:13;;;;;;;;;;;13.70;77.30;;;;;;5094551;28;20007;-79
2022/10/02 07:27:38;;;;;;;;;;;13.70;78.10;;;;;;5058238;28;19918;-78
2022/10/02 07:30:04;;;;;;;;;;;13.70;77.20;;;;;;5075321;28;19916;-78
2022/10/02 07:32:56;;;;;;;;;;;13.80;77.30;;;;;;5055885;28;19999;-78
2022/10/02 07:35:22;;;;;;;;;;;13.70;77.30;;;;;;5054237;28;19955;-78
2022/10/02 07:37:50;;;;;;;;;;;13.80;77.30;;;;;;5077839;28;19916;-79
2022/10/02 07:40:15;;;;;;;;;;;13.80;77.30;;;;;;5053221;28;19917;-79
2022/10/02 07:43:03;;;;;;;;;;;13.80;77.30;;;;;;5052504;28;20003;-77
2022/10/02 07:45:35;;;;;;;;;;;13.80;77.40;;;;;;5052259;28;19928;-78
2022/10/02 07:48:11;;;;;;;;;;;13.80;77.40;;;;;;5064097;28;19916;-78
2022/10/02 07:50:40;;;;;;;;;;;13.80;77.40;;;;;;5083841;28;19920;-79
2022/10/02 07:53:05;;;;;;;;;;;13.80;77.40;;;;;;5082339;28;20012;-78
2022/10/02 07:55:31;;;;;;;;;;;13.80;77.40;;;;;;5065714;28;20035;-79
2022/10/02 07:58:04;;;;;;;;;;;13.80;77.40;;;;;;5084471;28;19934;-78
2022/10/02 08:00:30;;;;;;;;;;;13.80;77.40;;;;;;5084182;28;19911;-78
2022/10/02 08:02:58;;;;;;;;;;;13.80;77.40;;;;;;5082780;28;20454;-78
2022/10/02 08:05:25;;;;;;;;;;;13.80;77.40;;;;;;5058137;28;19915;-78
2022/10/02 08:07:51;;;;;;;;;;;13.80;77.40;;;;;;5064000;28;19946;-79
2022/10/02 08:10:19;;;;;;;;;;;13.80;77.40;;;;;;5064707;28;19958;-78
2022/10/02 08:12:47;;;;;;;;;;;13.80;77.40;;;;;;5067300;28;19927;-78
2022/10/02 08:15:14;;;;;;;;;;;13.80;77.40;;;;;;5062299;28;19977;-78
2022/10/02 08:17:49;;;;;;;;;;;13.80;77.40;;;;;;5051865;28;19920;-78
2022/10/02 08:20:15;;;;;;;;;;;13.80;77.40;;;;;;5085117;28;19923;-79
2022/10/02 08:22:45;;;;;;;;;;;13.80;77.40;;;;;;5085499;28;19912;-78
2022/10/02 08:25:13;;;;;;;;;;;13.80;77.50;;;;;;5062735;28;20023;-78
2022/10/02 08:27:54;;;;;;;;;;;13.80;77.50;;;;;;5079582;28;20299;-78
2022/10/02 08:30:19;;;;;;;;;;;13.80;77.50;;;;;;5084834;28;19920;-79
2022/10/02 08:32:46;;;;;;;;;;;13.70;77.50;;;;;;5055391;28;19916;-78
2022/10/02 08:35:18;;;;;;;;;;;13.70;77.50;;;;;;5094665;28;19944;-78
2022/10/02 08:37:44;;;;;;;;;;;13.70;77.50;;;;;;5075038;28;19973;-78
2022/10/02 08:40:22;;;;;;;;;;;13.70;78.40;;;;;;5049678;28;19920;-77
2022/10/02 08:42:55;;;;;;;;;;;13.70;77.60;;;;;;5056988;28;19916;-79
2022/10/02 08:45:39;;;;;;;;;;;13.70;77.60;;;;;;5053412;28;19921;-78
2022/10/02 08:48:05;;;;;;;;;;;13.70;77.60;;;;;;5066817;28;19936;-78
2022/10/02 08:50:45;;;;;;;;;;;13.70;77.60;;;;;;5070033;28;20010;-79
2022/10/02 08:53:20;;;;;;;;;;;13.70;77.60;;;;;;5072512;28;19920;-79
2022/10/02 08:56:05;;;;;;;;;;;13.70;77.60;;;;;;5068348;28;19987;-79
2022/10/02 08:58:36;;;;;;;;;;;13.70;77.60;;;;;;5068215;28;19967;-78
2022/10/02 09:01:22;;;;;;;;;;;13.70;77.60;;;;;;5076326;28;19954;-79
2022/10/02 09:04:11;;;;;;;;;;;13.70;77.50;;;;;;5072008;28;19984;-80
2022/10/02 09:06:40;;;;;;;;;;;13.80;77.60;;;;;;5077701;28;19923;-78
2022/10/02 09:09:11;;;;;;;;;;;13.80;77.60;;;;;;5071510;28;19915;-80
2022/10/02 09:11:49;;;;;;;;;;;13.80;77.60;;;;;;5096371;28;19966;-79
2022/10/02 09:14:14;;;;;;;;;;;13.80;77.60;;;;;;5077337;28;19916;-80
2022/10/02 09:16:43;;;;;;;;;;;13.80;77.60;;;;;;5078174;28;19912;-80
2022/10/02 09:19:29;;;;;;;;;;;13.80;78.40;;;;;;5061672;28;19955;-78
2022/10/02 09:21:59;;;;;;;;;;;13.90;77.60;;;;;;5058810;28;19995;-79
2022/10/02 09:24:45;;;;;;;;;;;13.90;77.60;;;;;;5050072;28;19994;-79
2022/10/02 09:27:29;;;;;;;;;;;13.90;77.50;;;;;;5074638;28;19916;-78
2022/10/02 09:30:04;;;;;;;;;;;13.90;77.50;;;;;;5078963;28;19920;-79
2022/10/02 09:32:48;;;;;;;;;;;13.90;77.50;;;;;;5076033;28;19916;-79
2022/10/02 09:35:32;;;;;;;;;;;14.00;77.50;;;;;;5064732;28;19995;-78
2022/10/02 09:38:20;;;;;;;;;;;14.00;77.50;;;;;;5063140;28;19927;-78
2022/10/02 09:41:04;;;;;;;;;;;14.00;77.40;;;;;;5065627;28;19947;-77
2022/10/02 09:43:50;;;;;;;;;;;14.10;77.50;;;;;;5080643;28;19927;-78
2022/10/02 09:46:18;;;;;;;;;;;14.10;78.30;;;;;;5054330;28;19920;-77
2022/10/02 09:48:50;;;;;;;;;;;14.10;77.40;;;;;;5072058;28;19912;-79
2022/10/02 09:51:25;;;;;;;;;;;14.10;77.40;;;;;;5074125;28;20007;-77
2022/10/02 09:53:50;;;;;;;;;;;14.10;77.50;;;;;;5071056;28;20466;-79
2022/10/02 09:56:22;;;;;;;;;;;14.10;77.40;;;;;;5073534;28;20404;-77
2022/10/02 09:59:06;;;;;;;;;;;14.20;77.40;;;;;;5068547;28;19920;-77
2022/10/02 10:01:34;;;;;;;;;;;14.20;77.40;;;;;;5068122;28;19923;-77
2022/10/02 10:04:18;;;;;;;;;;;14.20;77.30;;;;;;5077469;28;20295;-78
2022/10/02 10:06:44;;;;;;;;;;;14.20;77.30;;;;;;5077346;28;19955;-79
2022/10/02 10:09:22;;;;;;;;;;;14.30;77.40;;;;;;5078461;28;19943;-78
2022/10/02 10:12:07;;;;;;;;;;;14.30;77.30;;;;;;5073704;28;19947;-78
2022/10/02 10:14:51;;;;;;;;;;;14.30;77.30;;;;;;5074484;28;19916;-78
2022/10/02 10:17:37;;;;;;;;;;;14.30;77.30;;;;;;5072758;28;20390;-77
2022/10/02 10:20:22;;;;;;;;;;;14.30;77.30;;;;;;5087424;28;19938;-77
2022/10/02 10:22:48;;;;;;;;;;;14.40;77.30;;;;;;5083783;28;19963;-76
2022/10/02 10:25:19;;;;;;;;;;;14.40;77.30;;;;;;5088116;28;19916;-76
2022/10/02 10:27:46;;;;;;;;;;;14.40;77.30;;;;;;5090028;28;19916;-77
2022/10/02 10:30:15;;;;;;;;;;;14.40;77.20;;;;;;5090860;28;19915;-77
2022/10/02 10:32:41;;;;;;;;;;;14.50;77.20;;;;;;5074483;28;19976;-77
2022/10/02 10:35:33;;;;;;;;;;;14.50;77.20;;;;;;5091881;28;19951;-77
2022/10/02 10:38:31;;;;;;;;;;;14.50;77.20;;;;;;5060691;28;19935;-76
2022/10/02 10:41:15;;;;;;;;;;;14.60;77.20;;;;;;5066362;28;19938;-76
2022/10/02 10:44:00;;;;;;;;;;;14.50;77.20;;;;;;5066308;28;19947;-75
2022/10/02 10:46:35;;;;;;;;;;;14.60;77.20;;;;;;5082122;28;19923;-75
2022/10/02 10:49:08;;;;;;;;;;;14.60;77.20;;;;;;5068000;28;19981;-76
2022/10/02 10:51:52;;;;;;;;;;;14.60;77.20;;;;;;5068377;28;19916;-76
2022/10/02 10:54:43;;;;;;;;;;;14.70;77.20;;;;;;5084318;28;20259;-76
2022/10/02 10:57:09;;;;;;;;;;;14.70;77.20;;;;;;5084064;28;19971;-76
2022/10/02 10:59:41;;;;;;;;;;;14.70;77.20;;;;;;5074913;28;20553;-76
2022/10/02 11:02:13;;;;;;;;;;;14.70;77.10;;;;;;5086620;28;19912;-77
2022/10/02 11:04:57;;;;;;;;;;;14.70;77.10;;;;;;5088373;28;19920;-76
2022/10/02 11:07:25;;;;;;;;;;;14.80;77.10;;;;;;5085233;28;19947;-78
2022/10/02 11:10:14;;;;;;;;;;;14.80;77.20;;;;;;5090264;28;19920;-76
2022/10/02 11:12:56;;;;;;;;;;;14.80;77.10;;;;;;5071385;28;19915;-77
2022/10/02 11:15:41;;;;;;;;;;;14.80;77.10;;;;;;5074738;28;20400;-77
2022/10/02 11:18:27;;;;;;;;;;;14.80;77.00;;;;;;5105985;28;20221;-76
2022/10/02 11:20:52;;;;;;;;;;;14.90;77.10;;;;;;5073681;28;19923;-76
2022/10/02 11:23:21;;;;;;;;;;;14.90;77.10;;;;;;5089424;28;19916;-77
2022/10/02 11:25:46;;;;;;;;;;;14.90;77.00;;;;;;5087538;28;19927;-77
2022/10/02 11:28:21;;;;;;;;;;;15.00;77.10;;;;;;5090197;28;19923;-77
2022/10/02 11:30:52;;;;;;;;;;;14.90;77.00;;;;;;5086693;28;19920;-77
2022/10/02 11:33:24;;;;;;;;;;;15.00;77.10;;;;;;5085948;28;20022;-77
2022/10/02 11:35:50;;;;;;;;;;;15.00;77.10;;;;;;5075185;28;19970;-77
2022/10/02 11:38:34;;;;;;;;;;;15.00;77.00;;;;;;5088588;28;20352;-77
2022/10/02 11:41:44;;;;;;;;;;;15.00;76.90;;;;;;5075007;28;20027;-77
2022/10/02 11:44:27;;;;;;;;;;;15.00;76.90;;;;;;4992051;28;19936;-77
2022/10/02 11:46:59;;;;;;;;;;;15.10;77.00;;;;;;4990401;28;19920;-76
2022/10/02 11:49:25;;;;;;;;;;;15.10;77.00;;;;;;5051770;28;20442;-76
2022/10/02 11:51:50;;;;;;;;;;;15.10;76.90;;;;;;5086293;28;19984;-77
2022/10/02 11:54:24;;;;;;;;;;;15.10;77.00;;;;;;5086200;28;19908;-78
2022/10/02 11:57:08;;;;;;;;;;;15.10;77.00;;;;;;5069359;28;19920;-77
2022/10/02 11:59:52;;;;;;;;;;;15.10;77.00;;;;;;5062371;28;19962;-78
2022/10/02 12:02:20;;;;;;;;;;;15.20;77.00;;;;;;5077051;28;20150;-76
2022/10/02 12:05:06;;;;;;;;;;;15.20;77.00;;;;;;5078642;28;19923;-79
2022/10/02 12:07:47;;;;;;;;;;;15.20;76.90;;;;;;5057436;28;20004;-78
2022/10/02 12:10:26;;;;;;;;;;;15.30;76.90;;;;;;5063326;28;20161;-78
2022/10/02 12:13:09;;;;;;;;;;;15.30;76.90;;;;;;5070642;28;19919;-78
2022/10/02 12:15:47;;;;;;;;;;;15.40;76.90;;;;;;5081391;28;19912;-79
2022/10/02 12:18:18;;;;;;;;;;;15.40;76.90;;;;;;5096428;28;19916;-77
2022/10/02 12:26:59;;;;;;;;;;;15.50;76.80;;;;;;5081991;28;19969;-77
2022/10/02 12:29:24;;;;;;;;;;;15.50;76.80;;;;;;5079630;28;19966;-78
2022/10/02 12:31:52;;;;;;;;;;;15.50;76.70;;;;;;5063314;28;19916;-77
2022/10/02 12:34:37;;;;;;;;;;;15.50;76.70;;;;;;5061998;28;19920;-78
2022/10/02 12:37:12;;;;;;;;;;;15.50;76.80;;;;;;5068268;28;19962;-76
2022/10/02 12:39:56;;;;;;;;;;;15.60;76.80;;;;;;5071325;28;19922;-78
2022/10/02 12:42:40;;;;;;;;;;;15.60;76.80;;;;;;5083156;28;19912;-77
2022/10/02 12:45:05;;;;;;;;;;;15.60;76.80;;;;;;5087453;28;19932;-77
2022/10/02 12:47:46;;;;;;;;;;;15.60;76.80;;;;;;5089451;28;20561;-77
2022/10/02 12:50:16;;;;;;;;;;;15.60;76.70;;;;;;5079404;28;19912;-78
2022/10/02 12:52:51;;;;;;;;;;;15.60;76.70;;;;;;5074567;28;19923;-77
2022/10/02 12:55:31;;;;;;;;;;;15.70;76.80;;;;;;5069432;28;19919;-78
2022/10/02 12:58:16;;;;;;;;;;;15.70;76.70;;;;;;5077942;28;19924;-77
2022/10/02 13:00:41;;;;;;;;;;;15.70;76.70;;;;;;5080281;28;19924;-77
2022/10/02 13:03:25;;;;;;;;;;;15.70;76.60;;;;;;5078465;28;19920;-78
2022/10/02 13:05:53;;;;;;;;;;;15.70;76.60;;;;;;5093025;28;19997;-78
2022/10/02 13:08:38;;;;;;;;;;;15.80;76.70;;;;;;5077976;28;19920;-78
2022/10/02 13:11:08;;;;;;;;;;;15.70;76.60;;;;;;5075804;28;20007;-78
2022/10/02 13:13:45;;;;;;;;;;;15.70;76.60;;;;;;5076635;28;20543;-78
2022/10/02 13:16:19;;;;;;;;;;;15.80;76.60;;;;;;5076812;28;19943;-78
2022/10/02 13:18:56;;;;;;;;;;;15.80;76.60;;;;;;5075463;28;19912;-78
2022/10/02 13:21:26;;;;;;;;;;;15.80;76.70;;;;;;5094857;28;19912;-76
2022/10/02 13:23:57;;;;;;;;;;;15.80;77.50;;;;;;5064255;28;19927;-79
2022/10/02 13:26:29;;;;;;;;;;;15.80;76.70;;;;;;5079388;28;19928;-79
2022/10/02 13:28:58;;;;;;;;;;;15.80;76.70;;;;;;5075538;28;19931;-78
2022/10/02 13:31:23;;;;;;;;;;;15.80;76.60;;;;;;5076607;28;19978;-78
2022/10/02 13:33:55;;;;;;;;;;;15.80;76.60;;;;;;5075012;28;19916;-78
2022/10/02 13:36:27;;;;;;;;;;;15.80;76.60;;;;;;5075691;28;19990;-78
2022/10/02 13:39:11;;;;;;;;;;;15.80;76.60;;;;;;5079248;28;19960;-78
2022/10/02 13:41:55;;;;;;;;;;;15.90;76.60;;;;;;5076305;28;19923;-79
2022/10/02 13:44:35;;;;;;;;;;;15.90;76.60;;;;;;5074280;28;20313;-77
2022/10/02 13:47:01;;;;;;;;;;;15.90;76.60;;;;;;5063498;28;19980;-77
2022/10/02 13:49:32;;;;;;;;;;;15.90;76.50;;;;;;5072714;28;19912;-77
2022/10/02 13:52:16;;;;;;;;;;;15.90;76.50;;;;;;5074953;28;19912;-79
2022/10/02 13:54:48;;;;;;;;;;;16.00;76.60;;;;;;5061669;28;20652;-78
2022/10/02 13:57:32;;;;;;;;;;;16.00;76.50;;;;;;5045174;28;19969;-78
2022/10/02 14:00:08;;;;;;;;;;;16.00;76.50;;;;;;5062515;28;19912;-78
2022/10/02 14:02:47;;;;;;;;;;;16.00;76.40;;;;;;5071382;28;20377;-77
2022/10/02 14:05:17;;;;;;;;;;;16.00;76.40;;;;;;5074678;28;19915;-81
2022/10/02 14:08:02;;;;;;;;;;;16.10;76.60;;;;;;5061260;28;19918;-80
2022/10/02 14:10:47;;;;;;;;;;;16.10;76.50;;;;;;5074749;28;19912;-79
2022/10/02 14:13:31;;;;;;;;;;;16.10;76.50;;;;;;5071570;28;19916;-79
2022/10/02 14:15:57;;;;;;;;;;;16.10;76.40;;;;;;5061146;28;19912;-78
2022/10/02 14:18:34;;;;;;;;;;;16.20;76.40;;;;;;5061610;28;19928;-78
2022/10/02 14:21:16;;;;;;;;;;;16.20;76.40;;;;;;5055434;28;19919;-78
2022/10/02 14:24:02;;;;;;;;;;;16.20;76.40;;;;;;5056529;28;19987;-81
2022/10/02 14:26:43;;;;;;;;;;;16.20;76.30;;;;;;5071886;28;19920;-80
2022/10/02 14:29:11;;;;;;;;;;;16.20;76.30;;;;;;5071910;28;20664;-81
2022/10/02 14:31:42;;;;;;;;;;;16.20;76.30;;;;;;5061859;28;19920;-80
2022/10/02 14:34:11;;;;;;;;;;;16.20;76.30;;;;;;5057870;28;19924;-80
2022/10/02 14:36:46;;;;;;;;;;;16.20;76.30;;;;;;5070314;28;19912;-79
2022/10/02 14:39:25;;;;;;;;;;;16.10;76.30;;;;;;5073047;28;19938;-80
2022/10/02 14:41:57;;;;;;;;;;;16.10;76.40;;;;;;5058061;28;19916;-80
2022/10/02 14:44:29;;;;;;;;;;;16.10;76.50;;;;;;5072560;28;19928;-78
2022/10/02 14:47:00;;;;;;;;;;;16.10;76.40;;;;;;5070948;28;19917;-79
2022/10/02 14:49:57;;;;;;;;;;;16.10;76.40;;;;;;5060992;28;20372;-79
2022/10/02 14:52:58;;;;;;;;;;;16.10;76.40;;;;;;5040887;28;19927;-78
2022/10/02 14:56:01;;;;;;;;;;;16.10;76.40;;;;;;4999272;28;20459;-79
2022/10/02 14:58:49;;;;;;;;;;;16.10;76.40;;;;;;5009184;28;19921;-78
2022/10/02 15:01:21;;;;;;;;;;;16.10;76.70;;;;;;4994872;28;20043;-80